createdAt,value
2024-05-09T00:00:50.650Z,53.41
2024-05-09T00:03:21.135Z,53.62
2024-05-09T00:05:55.129Z,53.81
2024-05-09T00:08:29.154Z,54.21
2024-05-09T00:10:58.892Z,54.23
2024-05-09T00:13:29.254Z,55.83
2024-05-09T00:15:59.067Z,56.53
2024-05-09T00:18:30.634Z,57.36
2024-05-09T00:21:01.047Z,57.01
2024-05-09T00:23:34.111Z,56.71
2024-05-09T00:26:04.187Z,56.63
2024-05-09T00:28:34.066Z,56.44
2024-05-09T00:31:05.495Z,56.40
2024-05-09T00:33:37.707Z,55.56
2024-05-09T00:36:08.246Z,55.30
2024-05-09T00:38:40.978Z,54.54
2024-05-09T00:41:10.879Z,54.45
2024-05-09T00:43:41.829Z,54.21
2024-05-09T00:46:12.792Z,54.24
2024-05-09T00:48:43.803Z,53.90
2024-05-09T00:51:13.974Z,53.98
2024-05-09T00:53:48.899Z,54.74
2024-05-09T00:56:19.996Z,54.63
2024-05-09T00:58:52.186Z,54.53
2024-05-09T01:01:24.693Z,54.56
2024-05-09T01:03:55.768Z,54.67
2024-05-09T01:06:28.995Z,54.73
2024-05-09T01:09:01.292Z,54.94
2024-05-09T01:11:36.557Z,55.10
2024-05-09T01:14:06.741Z,55.32
2024-05-09T01:16:36.888Z,55.76
2024-05-09T01:19:09.457Z,55.45
2024-05-09T01:21:43.117Z,55.95
2024-05-09T01:24:15.891Z,55.99
2024-05-09T01:26:49.925Z,55.82
2024-05-09T01:29:20.540Z,56.41
2024-05-09T01:31:52.219Z,56.42
2024-05-09T01:34:22.686Z,56.89
2024-05-09T01:36:52.648Z,56.61
2024-05-09T01:39:27.704Z,57.04
2024-05-09T01:41:57.869Z,57.14
2024-05-09T01:44:27.783Z,56.88
2024-05-09T01:46:57.712Z,57.72
2024-05-09T01:49:27.462Z,57.98
2024-05-09T01:51:57.183Z,58.58
2024-05-09T01:54:29.432Z,58.22
2024-05-09T01:56:59.344Z,58.53
2024-05-09T01:59:29.677Z,58.79
2024-05-09T02:02:01.992Z,58.89
2024-05-09T02:04:32.159Z,58.45
2024-05-09T02:07:02.996Z,58.53
2024-05-09T02:09:35.160Z,59.72
2024-05-09T02:12:04.760Z,59.56
2024-05-09T02:14:36.405Z,59.66
2024-05-09T02:17:06.517Z,59.87
2024-05-09T02:19:36.769Z,60.00
2024-05-09T02:22:07.357Z,59.58
2024-05-09T02:24:39.964Z,59.83
2024-05-09T02:27:09.573Z,59.74
2024-05-09T02:29:40.214Z,59.80
2024-05-09T02:32:10.234Z,59.77
2024-05-09T02:34:37.885Z,59.29
2024-05-09T02:37:07.738Z,60.29
2024-05-09T02:39:38.311Z,61.22
2024-05-09T02:42:15.289Z,61.02
2024-05-09T02:44:44.190Z,61.04
2024-05-09T02:47:13.954Z,61.12
2024-05-09T02:49:41.364Z,61.19
2024-05-09T02:52:11.258Z,61.40
2024-05-09T02:54:42.277Z,61.81
2024-05-09T02:57:11.873Z,61.28
2024-05-09T02:59:40.219Z,61.40
2024-05-09T03:02:09.925Z,61.43
2024-05-09T03:04:39.275Z,61.60
2024-05-09T03:07:09.719Z,61.17
2024-05-09T03:09:37.006Z,61.07
2024-05-09T03:12:09.968Z,61.58
2024-05-09T03:14:37.381Z,61.30
2024-05-09T03:17:08.133Z,61.74
2024-05-09T03:19:35.700Z,61.75
2024-05-09T03:22:05.310Z,62.06
2024-05-09T03:24:33.968Z,62.59
2024-05-09T03:27:03.870Z,62.15
2024-05-09T03:29:37.400Z,62.86
2024-05-09T03:32:08.560Z,62.70
2024-05-09T03:34:35.795Z,63.20
2024-05-09T03:37:06.500Z,63.21
2024-05-09T03:39:38.967Z,64.17
2024-05-09T03:42:08.645Z,64.44
2024-05-09T03:44:41.675Z,64.49
2024-05-09T03:47:08.992Z,64.40
2024-05-09T03:49:39.308Z,64.65
2024-05-09T03:52:06.814Z,65.06
2024-05-09T03:54:37.958Z,64.50
2024-05-09T03:57:05.710Z,64.82
2024-05-09T03:59:37.114Z,64.98
2024-05-09T04:02:06.866Z,64.73
2024-05-09T04:04:37.514Z,64.81
2024-05-09T04:07:05.010Z,64.39
2024-05-09T04:09:35.315Z,64.35
2024-05-09T04:12:02.589Z,64.14
2024-05-09T04:14:34.350Z,63.58
2024-05-09T04:17:01.777Z,61.48
2024-05-09T04:19:34.290Z,62.61
2024-05-09T04:22:01.448Z,62.29
2024-05-09T04:24:32.127Z,62.49
2024-05-09T04:26:59.215Z,63.00
2024-05-09T04:29:30.046Z,63.59
2024-05-09T04:31:58.552Z,63.63
2024-05-09T04:34:28.656Z,62.81
2024-05-09T04:36:58.361Z,62.22
2024-05-09T04:39:28.520Z,62.40
2024-05-09T04:41:56.666Z,61.71
2024-05-09T04:44:26.880Z,61.34
2024-05-09T04:46:56.457Z,61.17
2024-05-09T04:49:27.196Z,60.91
2024-05-09T04:51:54.235Z,61.01
2024-05-09T04:54:34.200Z,60.79
2024-05-09T04:57:04.035Z,60.11
2024-05-09T04:59:33.688Z,59.79
2024-05-09T05:02:02.361Z,59.86
2024-05-09T05:04:32.435Z,60.61
2024-05-09T05:07:02.551Z,59.94
2024-05-09T05:09:35.388Z,59.72
2024-05-09T05:12:05.593Z,59.20
2024-05-09T05:14:35.582Z,58.99
2024-05-09T05:17:05.483Z,58.40
2024-05-09T05:19:33.199Z,59.23
2024-05-09T05:22:02.984Z,59.25
2024-05-09T05:24:33.883Z,58.61
2024-05-09T05:27:11.363Z,58.14
2024-05-09T05:29:38.961Z,58.29
2024-05-09T05:32:10.022Z,57.83
2024-05-09T05:34:37.002Z,57.30
2024-05-09T05:37:07.563Z,57.67
2024-05-09T05:39:37.225Z,56.81
2024-05-09T05:42:09.626Z,57.00
2024-05-09T05:44:37.489Z,57.35
2024-05-09T05:47:08.646Z,57.10
2024-05-09T05:49:37.175Z,57.56
2024-05-09T05:52:07.640Z,57.38
2024-05-09T05:54:37.175Z,57.65
2024-05-09T05:57:08.407Z,56.99
2024-05-09T05:59:35.413Z,57.69
2024-05-09T06:02:05.825Z,55.95
2024-05-09T06:04:33.436Z,55.82
2024-05-09T06:07:03.911Z,55.42
2024-05-09T06:09:31.273Z,54.44
2024-05-09T06:12:09.611Z,53.34
2024-05-09T06:14:37.032Z,53.15
2024-05-09T06:17:08.392Z,52.63
2024-05-09T06:19:35.545Z,53.29
2024-05-09T06:22:06.878Z,53.51
2024-05-09T06:24:36.399Z,54.51
2024-05-09T06:27:09.289Z,54.41
2024-05-09T06:29:38.683Z,53.24
2024-05-09T06:32:08.598Z,51.73
2024-05-09T06:34:36.864Z,51.86
2024-05-09T06:37:07.024Z,51.41
2024-05-09T06:39:35.489Z,49.70
2024-05-09T06:42:08.747Z,50.41
2024-05-09T06:44:36.552Z,50.61
2024-05-09T06:47:06.704Z,50.11
2024-05-09T06:49:34.500Z,50.16
2024-05-09T06:52:05.612Z,49.50
2024-05-09T06:54:32.959Z,49.72
2024-05-09T06:57:04.725Z,48.71
2024-05-09T06:59:34.797Z,48.60
2024-05-09T07:02:05.558Z,47.58
2024-05-09T07:04:35.753Z,47.38
2024-05-09T07:07:04.339Z,47.64
2024-05-09T07:09:40.790Z,46.79
2024-05-09T07:12:08.547Z,45.68
2024-05-09T07:14:43.241Z,46.73
2024-05-09T07:17:10.983Z,48.13
2024-05-09T07:19:42.419Z,47.51
2024-05-09T07:22:10.861Z,47.28
2024-05-09T07:24:44.074Z,48.99
2024-05-09T07:27:11.048Z,50.81
2024-05-09T07:29:44.262Z,49.83
2024-05-09T07:32:11.882Z,48.83
2024-05-09T07:34:42.649Z,47.33
2024-05-09T07:37:12.875Z,46.90
2024-05-09T07:39:43.287Z,48.01
2024-05-09T07:42:11.052Z,47.52
2024-05-09T07:44:46.324Z,47.29
2024-05-09T07:48:28.904Z,46.07
2024-05-09T07:52:22.578Z,44.25
2024-05-09T07:53:35.558Z,44.91
2024-05-09T07:55:43.460Z,45.20
2024-05-09T07:58:10.511Z,44.44
2024-05-09T08:00:42.862Z,42.93
2024-05-09T08:03:10.903Z,42.87
2024-05-09T08:05:40.968Z,43.31
2024-05-09T08:08:09.045Z,43.69
2024-05-09T08:10:39.759Z,43.67
2024-05-09T08:13:07.488Z,44.27
2024-05-09T08:15:37.869Z,43.38
2024-05-09T08:18:10.945Z,42.32
2024-05-09T08:20:43.909Z,40.49
2024-05-09T08:23:11.765Z,38.72
2024-05-09T08:25:42.369Z,39.61
2024-05-09T08:28:11.035Z,44.53
2024-05-09T08:30:43.314Z,38.61
2024-05-09T08:33:13.633Z,36.38
2024-05-09T08:35:44.137Z,38.46
2024-05-09T08:38:11.695Z,39.87
2024-05-09T08:40:45.170Z,39.62
2024-05-09T08:43:14.610Z,38.58
2024-05-09T08:45:46.118Z,36.99
2024-05-09T08:48:18.435Z,34.89
2024-05-09T08:50:48.615Z,35.95
2024-05-09T08:53:16.666Z,34.20
2024-05-09T08:55:48.323Z,34.62
2024-05-09T08:58:17.460Z,33.74
2024-05-09T09:00:49.162Z,32.74
2024-05-09T09:03:24.972Z,31.31
2024-05-09T09:06:01.118Z,31.69
2024-05-09T09:08:33.790Z,33.97
2024-05-09T09:11:01.109Z,33.79
2024-05-09T09:13:31.121Z,35.15
2024-05-09T09:16:00.074Z,33.53
2024-05-09T09:18:38.452Z,35.97
2024-05-09T09:21:10.331Z,37.27
2024-05-09T09:23:41.795Z,36.58
2024-05-09T09:26:08.822Z,35.38
2024-05-09T09:28:40.611Z,35.78
2024-05-09T09:31:08.013Z,35.62
2024-05-09T09:33:45.227Z,35.97
2024-05-09T09:36:14.382Z,35.51
2024-05-09T09:38:44.914Z,36.29
2024-05-09T09:41:17.972Z,36.82
2024-05-09T09:43:48.078Z,36.42
2024-05-09T09:46:16.375Z,36.17
2024-05-09T09:48:49.959Z,34.40
2024-05-09T09:51:17.440Z,33.77
2024-05-09T09:53:47.806Z,34.76
2024-05-09T09:56:19.266Z,35.92
2024-05-09T09:58:50.848Z,35.38
2024-05-09T10:01:18.208Z,35.76
2024-05-09T10:03:51.807Z,36.22
2024-05-09T10:06:19.669Z,37.01
2024-05-09T10:08:50.726Z,35.40
2024-05-09T10:11:20.556Z,35.36
2024-05-09T10:13:50.392Z,34.29
2024-05-09T10:16:22.013Z,35.91
2024-05-09T10:18:54.619Z,35.33
2024-05-09T10:21:21.748Z,35.18
2024-05-09T10:24:01.489Z,36.20
2024-05-09T10:26:32.955Z,36.47
2024-05-09T10:29:03.332Z,36.81
2024-05-09T10:31:30.640Z,36.30
2024-05-09T10:34:03.920Z,35.83
2024-05-09T10:36:33.664Z,35.80
2024-05-09T10:39:03.537Z,35.34
2024-05-09T10:41:30.819Z,34.24
2024-05-09T10:44:00.455Z,36.23
2024-05-09T10:46:27.566Z,36.90
2024-05-09T10:49:04.274Z,36.45
2024-05-09T10:51:38.612Z,37.27
2024-05-09T10:54:08.326Z,37.87
2024-05-09T10:56:35.921Z,34.47
2024-05-09T10:59:06.802Z,32.89
2024-05-09T11:01:34.399Z,35.03
2024-05-09T11:04:04.309Z,35.80
2024-05-09T11:06:31.611Z,35.75
2024-05-09T11:09:04.271Z,37.02
2024-05-09T11:11:32.889Z,37.67
2024-05-09T11:14:05.611Z,34.29
2024-05-09T11:16:32.963Z,34.02
2024-05-09T11:19:02.952Z,36.91
2024-05-09T11:21:30.352Z,36.40
2024-05-09T11:24:00.147Z,36.04
2024-05-09T11:26:31.735Z,33.94
2024-05-09T11:29:01.388Z,33.10
2024-05-09T11:31:28.512Z,34.50
2024-05-09T11:33:58.355Z,34.57
2024-05-09T11:36:25.719Z,32.81
2024-05-09T11:38:58.268Z,33.96
2024-05-09T11:41:27.157Z,33.54
2024-05-09T11:44:03.002Z,34.38
2024-05-09T11:46:30.648Z,32.60
2024-05-09T11:49:07.881Z,34.33
2024-05-09T11:51:37.074Z,32.32
2024-05-09T11:54:08.084Z,32.23
2024-05-09T11:56:36.359Z,31.85
2024-05-09T11:59:08.822Z,31.19
2024-05-09T12:01:37.356Z,32.54
2024-05-09T12:04:07.470Z,34.94
2024-05-09T12:06:34.888Z,34.01
2024-05-09T12:09:05.913Z,33.52
2024-05-09T12:11:33.312Z,33.35
2024-05-09T12:14:02.926Z,31.93
2024-05-09T12:16:33.145Z,30.07
2024-05-09T12:19:03.048Z,30.02
2024-05-09T12:21:32.015Z,29.45
2024-05-09T12:24:01.598Z,30.33
2024-05-09T12:26:29.145Z,30.30
2024-05-09T12:28:58.730Z,29.05
2024-05-09T12:31:27.482Z,30.39
2024-05-09T12:34:00.319Z,32.31
2024-05-09T12:36:28.457Z,31.73
2024-05-09T12:38:58.124Z,30.51
2024-05-09T12:41:25.822Z,29.93
2024-05-09T12:43:58.448Z,32.75
2024-05-09T12:46:26.387Z,32.08
2024-05-09T12:48:56.372Z,31.44
2024-05-09T12:51:26.502Z,32.20
2024-05-09T12:53:57.223Z,30.89
2024-05-09T12:56:25.008Z,31.89
2024-05-09T12:58:54.690Z,29.94
2024-05-09T13:01:22.589Z,29.82
2024-05-09T13:03:52.378Z,29.25
2024-05-09T13:06:20.528Z,30.47
2024-05-09T13:08:52.739Z,30.92
2024-05-09T13:11:20.483Z,30.67
2024-05-09T13:13:50.096Z,30.86
2024-05-09T13:16:18.668Z,30.65
2024-05-09T13:18:50.249Z,31.81
2024-05-09T13:21:18.016Z,30.66
2024-05-09T13:23:52.134Z,29.21
2024-05-09T13:26:20.369Z,29.70
2024-05-09T13:28:51.073Z,30.73
2024-05-09T13:31:18.124Z,32.24
2024-05-09T13:33:48.602Z,32.10
2024-05-09T13:36:15.731Z,32.56
2024-05-09T13:38:45.745Z,31.54
2024-05-09T13:41:15.671Z,31.51
2024-05-09T13:43:45.585Z,31.18
2024-05-09T13:46:12.682Z,30.56
2024-05-09T13:48:43.727Z,30.00
2024-05-09T13:51:11.055Z,30.12
2024-05-09T13:53:41.100Z,29.80
2024-05-09T13:56:08.899Z,29.15
2024-05-09T13:58:42.353Z,27.83
2024-05-09T14:01:09.451Z,27.77
2024-05-09T14:03:40.026Z,27.77
2024-05-09T14:06:13.030Z,26.96
2024-05-09T14:08:43.706Z,28.57
2024-05-09T14:11:10.926Z,27.93
2024-05-09T14:13:44.357Z,29.26
2024-05-09T14:16:14.455Z,28.08
2024-05-09T14:18:45.914Z,26.36
2024-05-09T14:21:13.140Z,25.86
2024-05-09T14:23:44.232Z,25.38
2024-05-09T14:26:11.464Z,26.91
2024-05-09T14:28:44.290Z,28.19
2024-05-09T14:31:11.296Z,30.00
2024-05-09T14:33:41.716Z,30.56
2024-05-09T14:36:08.790Z,28.37
2024-05-09T14:38:39.255Z,30.11
2024-05-09T14:41:07.950Z,29.65
2024-05-09T14:43:38.807Z,31.24
2024-05-09T14:46:08.635Z,31.83
2024-05-09T14:48:39.187Z,30.70
2024-05-09T14:51:06.344Z,28.64
2024-05-09T14:53:37.391Z,29.19
2024-05-09T14:56:08.979Z,26.23
2024-05-09T14:58:39.475Z,24.54
2024-05-09T15:01:09.485Z,24.65
2024-05-09T15:03:39.645Z,24.10
2024-05-09T15:06:07.456Z,22.41
2024-05-09T15:08:38.644Z,21.48
2024-05-09T15:11:05.804Z,22.15
2024-05-09T15:13:35.825Z,22.66
2024-05-09T15:16:03.003Z,23.77
2024-05-09T15:18:35.673Z,24.06
2024-05-09T15:21:04.048Z,22.48
2024-05-09T15:23:35.632Z,23.23
2024-05-09T15:26:03.508Z,23.05
2024-05-09T15:28:34.326Z,23.96
2024-05-09T15:31:02.683Z,24.30
2024-05-09T15:33:36.170Z,28.37
2024-05-09T15:36:03.303Z,29.63
2024-05-09T15:38:34.110Z,31.79
2024-05-09T15:41:01.813Z,31.65
2024-05-09T15:43:32.300Z,31.72
2024-05-09T15:45:59.542Z,33.58
2024-05-09T15:48:33.531Z,32.56
2024-05-09T15:51:03.918Z,30.35
2024-05-09T15:53:36.384Z,31.45
2024-05-09T15:56:07.206Z,31.00
2024-05-09T15:58:34.947Z,31.12
2024-05-09T16:01:04.870Z,32.96
2024-05-09T16:03:32.580Z,33.92
2024-05-09T16:06:02.449Z,34.20
2024-05-09T16:08:34.217Z,33.91
2024-05-09T16:11:03.949Z,32.48
2024-05-09T16:13:31.640Z,30.36
2024-05-09T16:16:01.780Z,27.49
2024-05-09T16:18:29.431Z,31.60
2024-05-09T16:21:00.307Z,32.80
2024-05-09T16:23:28.326Z,33.42
2024-05-09T16:26:01.023Z,34.29
2024-05-09T16:28:28.442Z,35.81
2024-05-09T16:30:59.377Z,34.83
2024-05-09T16:33:27.440Z,35.83
2024-05-09T16:35:57.131Z,35.89
2024-05-09T16:38:25.413Z,32.90
2024-05-09T16:40:55.318Z,32.22
2024-05-09T16:43:25.161Z,29.37
2024-05-09T16:45:56.114Z,28.07
2024-05-09T16:48:24.345Z,25.66
2024-05-09T16:50:54.001Z,26.15
2024-05-09T16:53:21.634Z,30.54
2024-05-09T16:55:51.447Z,31.66
2024-05-09T16:58:19.650Z,34.22
2024-05-09T17:00:53.588Z,35.22
2024-05-09T17:03:24.847Z,35.66
2024-05-09T17:05:54.765Z,36.40
2024-05-09T17:08:22.565Z,35.84
2024-05-09T17:10:53.612Z,35.46
2024-05-09T17:13:24.673Z,35.55
2024-05-09T17:16:01.754Z,36.59
2024-05-09T17:18:32.174Z,37.36
2024-05-09T17:20:59.176Z,37.19
2024-05-09T17:23:35.106Z,37.20
2024-05-09T17:26:05.200Z,37.27
2024-05-09T17:28:32.655Z,38.02
2024-05-09T17:31:10.865Z,38.17
2024-05-09T17:33:38.271Z,38.12
2024-05-09T17:36:08.702Z,38.68
2024-05-09T17:38:38.537Z,39.05
2024-05-09T17:41:08.115Z,38.72
2024-05-09T17:43:36.314Z,39.69
2024-05-09T17:46:09.143Z,39.66
2024-05-09T17:48:36.872Z,39.64
2024-05-09T17:51:07.073Z,40.03
2024-05-09T17:53:34.320Z,40.53
2024-05-09T17:56:03.989Z,40.14
2024-05-09T17:58:31.178Z,40.33
2024-05-09T18:01:01.218Z,40.22
2024-05-09T18:03:31.291Z,40.63
2024-05-09T18:06:01.504Z,41.00
2024-05-09T18:08:28.747Z,40.98
2024-05-09T18:10:58.479Z,41.46
2024-05-09T18:13:27.310Z,41.85
2024-05-09T18:15:57.139Z,41.75
2024-05-09T18:18:24.980Z,41.88
2024-05-09T18:20:57.342Z,42.33
2024-05-09T18:23:26.660Z,42.97
2024-05-09T18:25:59.799Z,43.28
2024-05-09T18:28:27.914Z,43.23
2024-05-09T18:30:57.904Z,43.50
2024-05-09T18:33:25.820Z,43.80
2024-05-09T18:35:58.264Z,43.91
2024-05-09T18:38:26.938Z,44.65
2024-05-09T18:40:56.712Z,44.30
2024-05-09T18:43:28.780Z,45.28
2024-05-09T18:46:06.860Z,45.26
2024-05-09T18:48:37.006Z,45.61
2024-05-09T18:51:09.396Z,46.10
2024-05-09T18:53:36.600Z,45.94
2024-05-09T18:56:06.405Z,46.08
2024-05-09T18:58:34.248Z,46.20
2024-05-09T19:01:03.986Z,46.40
2024-05-09T19:03:31.573Z,46.82
2024-05-09T19:06:02.128Z,46.87
2024-05-09T19:08:32.380Z,47.18
2024-05-09T19:11:02.149Z,47.61
2024-05-09T19:13:29.617Z,47.44
2024-05-09T19:15:59.594Z,47.47
2024-05-09T19:18:27.745Z,47.44
2024-05-09T19:20:57.502Z,47.41
2024-05-09T19:23:25.244Z,48.34
2024-05-09T19:25:57.485Z,47.92
2024-05-09T19:28:25.187Z,48.68
2024-05-09T19:30:56.228Z,48.22
2024-05-09T19:33:23.441Z,48.50
2024-05-09T19:35:56.217Z,48.70
2024-05-09T19:38:23.216Z,48.73
2024-05-09T19:40:53.174Z,49.43
2024-05-09T19:43:23.011Z,48.82
2024-05-09T19:45:52.930Z,49.22
2024-05-09T19:48:21.245Z,49.59
2024-05-09T19:50:53.090Z,49.81
2024-05-09T19:53:20.572Z,49.94
2024-05-09T19:55:50.672Z,50.47
2024-05-09T19:58:18.008Z,50.57
2024-05-09T20:00:51.696Z,50.99
2024-05-09T20:03:19.228Z,50.55
2024-05-09T20:05:50.040Z,50.80
2024-05-09T20:08:17.234Z,50.90
2024-05-09T20:10:47.571Z,51.84
2024-05-09T20:13:14.898Z,51.80
2024-05-09T20:15:45.046Z,52.10
2024-05-09T20:18:18.090Z,52.37
2024-05-09T20:20:50.699Z,52.36
2024-05-09T20:23:19.381Z,52.16
2024-05-09T20:25:48.948Z,52.10
2024-05-09T20:28:15.941Z,53.03
2024-05-09T20:30:45.884Z,52.91
2024-05-09T20:33:15.684Z,53.10
2024-05-09T20:35:45.308Z,52.70
2024-05-09T20:38:12.296Z,52.84
2024-05-09T20:40:43.787Z,53.56
2024-05-09T20:43:11.158Z,53.62
2024-05-09T20:45:41.272Z,53.38
2024-05-09T20:48:09.727Z,53.11
2024-05-09T20:50:46.814Z,53.51
2024-05-09T20:53:18.814Z,54.50
2024-05-09T20:55:48.439Z,55.08
2024-05-09T20:58:18.203Z,55.52
2024-05-09T21:00:50.362Z,55.80
2024-05-09T21:03:18.766Z,56.46
2024-05-09T21:05:52.440Z,57.04
2024-05-09T21:08:20.046Z,59.25
2024-05-09T21:10:51.654Z,59.10
2024-05-09T21:13:21.974Z,60.19
2024-05-09T21:15:51.005Z,60.14
2024-05-09T21:18:21.733Z,60.50
2024-05-09T21:20:51.556Z,60.78
2024-05-09T21:23:21.114Z,61.19
2024-05-09T21:25:48.323Z,61.62
2024-05-09T21:28:17.863Z,61.68
2024-05-09T21:30:44.995Z,61.77
2024-05-09T21:33:15.469Z,62.50
2024-05-09T21:35:43.207Z,61.90
2024-05-09T21:38:16.244Z,62.26
2024-05-09T21:40:46.522Z,63.11
2024-05-09T21:43:14.635Z,63.11
2024-05-09T21:45:44.575Z,62.55
2024-05-09T21:48:16.107Z,63.08
2024-05-09T21:50:46.674Z,63.04
2024-05-09T21:53:16.598Z,62.94
2024-05-09T21:55:46.176Z,62.65
2024-05-09T21:58:15.123Z,63.14
2024-05-09T22:00:47.835Z,63.86
2024-05-09T22:03:15.716Z,64.27
2024-05-09T22:05:45.599Z,64.35
2024-05-09T22:08:13.058Z,64.25
2024-05-09T22:10:47.805Z,64.64
2024-05-09T22:13:18.030Z,65.01
2024-05-09T22:15:47.700Z,65.92
2024-05-09T22:18:15.511Z,65.70
2024-05-09T22:20:46.689Z,65.85
2024-05-09T22:23:14.831Z,65.70
2024-05-09T22:25:47.140Z,66.13
2024-05-09T22:28:15.814Z,66.12
2024-05-09T22:30:47.115Z,65.94
2024-05-09T22:33:15.498Z,65.90
2024-05-09T22:35:47.471Z,66.68
2024-05-09T22:38:14.744Z,66.92
2024-05-09T22:40:49.404Z,66.80
2024-05-09T22:43:21.039Z,66.12
2024-05-09T22:45:52.482Z,66.73
2024-05-09T22:48:20.700Z,66.52
2024-05-09T22:50:50.392Z,67.29
2024-05-09T22:53:18.229Z,67.39
2024-05-09T22:55:50.347Z,66.65
2024-05-09T22:58:18.575Z,66.82
2024-05-09T23:00:48.536Z,67.28
2024-05-09T23:03:17.050Z,67.17
2024-05-09T23:05:47.390Z,67.03
2024-05-09T23:08:14.732Z,66.38
2024-05-09T23:10:44.783Z,67.14
2024-05-09T23:13:14.487Z,66.80
2024-05-09T23:15:44.492Z,66.48
2024-05-09T23:18:11.504Z,66.64
2024-05-09T23:20:41.626Z,66.83
2024-05-09T23:23:10.407Z,66.03
2024-05-09T23:25:42.167Z,66.14
2024-05-09T23:28:11.999Z,66.94
2024-05-09T23:30:42.624Z,66.61
2024-05-09T23:33:14.317Z,66.79
2024-05-09T23:35:44.325Z,66.60
2024-05-09T23:38:15.603Z,67.26
2024-05-09T23:40:43.674Z,66.85
2024-05-09T23:43:15.381Z,66.69
2024-05-09T23:45:47.065Z,67.08
2024-05-09T23:48:16.869Z,66.91
2024-05-09T23:50:44.445Z,67.40
2024-05-09T23:53:14.409Z,66.79
2024-05-09T23:55:42.874Z,67.82
2024-05-09T23:58:12.500Z,67.43
